createdAt,value
2023-01-30T00:01:36.816Z,9.48
2023-01-30T00:04:05.596Z,11.07
2023-01-30T00:06:37.373Z,8.77
2023-01-30T00:09:06.137Z,9.52
2023-01-30T00:11:35.084Z,10.25
2023-01-30T00:14:05.218Z,8.70
2023-01-30T00:16:33.941Z,8.13
2023-01-30T00:19:02.801Z,7.40
2023-01-30T00:21:31.638Z,8.90
2023-01-30T00:24:00.955Z,8.45
2023-01-30T00:26:30.060Z,8.68
2023-01-30T00:28:58.862Z,8.95
2023-01-30T00:31:29.092Z,8.02
2023-01-30T00:33:57.843Z,10.13
2023-01-30T00:36:26.699Z,8.35
2023-01-30T00:38:58.804Z,8.43
2023-01-30T00:41:48.296Z,9.00
2023-01-30T00:44:34.072Z,8.73
2023-01-30T00:47:08.728Z,8.73
2023-01-30T00:49:38.347Z,8.88
2023-01-30T00:52:07.569Z,8.45
2023-01-30T00:54:36.491Z,9.10
2023-01-30T00:57:05.336Z,8.95
2023-01-30T00:59:34.172Z,8.65
2023-01-30T01:02:04.402Z,10.00
2023-01-30T01:04:43.284Z,10.68
2023-01-30T01:07:13.683Z,9.38
2023-01-30T01:09:43.265Z,9.80
2023-01-30T01:12:12.025Z,11.90
2023-01-30T01:14:40.779Z,9.82
2023-01-30T01:17:11.085Z,9.50
2023-01-30T01:19:40.410Z,11.40
2023-01-30T01:22:09.053Z,11.00
2023-01-30T01:24:37.852Z,11.52
2023-01-30T01:27:06.878Z,10.73
2023-01-30T01:29:35.588Z,10.23
2023-01-30T01:32:04.474Z,12.15
2023-01-30T01:34:34.672Z,11.45
2023-01-30T01:37:03.448Z,9.27
2023-01-30T01:39:46.121Z,11.75
2023-01-30T01:42:15.104Z,11.00
2023-01-30T01:45:03.680Z,10.57
2023-01-30T01:47:33.283Z,10.93
2023-01-30T01:50:03.833Z,10.40
2023-01-30T01:52:32.918Z,11.30
2023-01-30T01:55:04.900Z,10.32
2023-01-30T01:57:37.496Z,11.95
2023-01-30T02:00:12.326Z,11.07
2023-01-30T02:02:47.409Z,10.27
2023-01-30T02:05:20.077Z,9.95
2023-01-30T02:07:52.718Z,11.38
2023-01-30T02:10:25.696Z,11.48
2023-01-30T02:12:54.390Z,12.27
2023-01-30T02:15:23.930Z,10.95
2023-01-30T02:17:52.868Z,11.48
2023-01-30T02:20:32.076Z,10.38
2023-01-30T02:23:28.766Z,10.23
2023-01-30T02:26:35.877Z,11.23
2023-01-30T02:29:34.610Z,9.55
2023-01-30T02:32:14.334Z,11.07
2023-01-30T02:34:52.359Z,11.05
2023-01-30T02:37:32.659Z,10.25
2023-01-30T02:40:24.047Z,9.55
2023-01-30T02:43:02.539Z,9.40
2023-01-30T02:45:37.866Z,10.15
2023-01-30T02:48:11.141Z,7.32
2023-01-30T02:50:44.792Z,8.65
2023-01-30T02:53:14.341Z,9.38
2023-01-30T02:55:44.251Z,9.48
2023-01-30T02:58:14.996Z,7.07
2023-01-30T03:01:04.909Z,9.15
2023-01-30T03:04:02.982Z,7.35
2023-01-30T03:06:43.761Z,7.43
2023-01-30T03:09:21.623Z,6.85
2023-01-30T03:12:01.637Z,10.00
2023-01-30T03:14:37.118Z,6.85
2023-01-30T03:17:12.039Z,7.70
2023-01-30T03:19:43.065Z,7.70
2023-01-30T03:22:12.856Z,8.35
2023-01-30T03:24:41.797Z,11.15
2023-01-30T03:27:13.722Z,7.88
2023-01-30T03:29:43.497Z,8.13
2023-01-30T03:32:12.301Z,8.05
2023-01-30T03:34:44.036Z,7.43
2023-01-30T03:37:13.071Z,6.38
2023-01-30T03:39:42.297Z,6.88
2023-01-30T03:42:12.665Z,9.02
2023-01-30T03:44:41.687Z,7.05
2023-01-30T03:47:10.994Z,6.22
2023-01-30T03:49:40.034Z,7.50
2023-01-30T03:52:10.914Z,7.63
2023-01-30T03:54:40.179Z,6.68
2023-01-30T03:57:09.081Z,6.95
2023-01-30T03:59:38.052Z,7.32
2023-01-30T04:02:10.896Z,7.15
2023-01-30T04:04:40.538Z,6.40
2023-01-30T04:07:12.969Z,6.95
2023-01-30T04:09:42.990Z,6.35
2023-01-30T04:12:12.655Z,5.65
2023-01-30T04:14:50.159Z,6.75
2023-01-30T04:17:37.497Z,6.40
2023-01-30T04:20:38.833Z,6.28
2023-01-30T04:23:09.033Z,5.22
2023-01-30T04:25:37.798Z,6.65
2023-01-30T04:28:09.572Z,6.25
2023-01-30T04:30:40.422Z,5.10
2023-01-30T04:33:35.879Z,7.15
2023-01-30T04:36:09.283Z,5.60
2023-01-30T04:38:40.430Z,6.50
2023-01-30T04:41:09.680Z,6.57
2023-01-30T04:43:41.947Z,6.53
2023-01-30T04:46:33.849Z,6.85
2023-01-30T04:49:02.719Z,6.35
2023-01-30T04:51:31.850Z,6.65
2023-01-30T04:54:04.014Z,5.70
2023-01-30T04:56:33.516Z,5.38
2023-01-30T04:59:02.456Z,7.30
2023-01-30T05:01:38.126Z,6.25
2023-01-30T05:04:08.193Z,5.07
2023-01-30T05:06:37.875Z,5.45
2023-01-30T05:09:08.436Z,5.93
2023-01-30T05:11:37.374Z,6.65
2023-01-30T05:14:06.317Z,6.63
2023-01-30T05:16:35.580Z,7.70
2023-01-30T05:19:04.306Z,4.50
2023-01-30T05:21:33.433Z,6.05
2023-01-30T05:24:02.078Z,5.35
2023-01-30T05:26:32.326Z,7.22
2023-01-30T05:29:01.185Z,5.65
2023-01-30T05:31:30.173Z,5.93
2023-01-30T05:33:58.940Z,5.07
2023-01-30T05:36:27.704Z,5.38
2023-01-30T05:38:56.555Z,6.75
2023-01-30T05:41:25.335Z,6.38
2023-01-30T05:43:55.558Z,7.72
2023-01-30T05:46:24.337Z,8.45
2023-01-30T05:48:53.162Z,11.68
2023-01-30T05:51:23.958Z,8.63
2023-01-30T05:53:52.959Z,10.07
2023-01-30T05:56:22.124Z,7.53
2023-01-30T05:58:56.928Z,7.63
2023-01-30T06:01:26.165Z,7.93
2023-01-30T06:03:55.501Z,9.00
2023-01-30T06:06:24.913Z,7.25
2023-01-30T06:08:55.843Z,6.38
2023-01-30T06:11:25.279Z,8.68
2023-01-30T06:13:54.009Z,11.05
2023-01-30T06:16:24.307Z,8.00
2023-01-30T06:18:53.291Z,9.63
2023-01-30T06:21:22.265Z,9.55
2023-01-30T06:23:51.801Z,6.60
2023-01-30T06:26:21.209Z,6.65
2023-01-30T06:28:49.850Z,6.93
2023-01-30T06:31:18.502Z,7.95
2023-01-30T06:33:50.014Z,5.57
2023-01-30T06:36:19.122Z,8.32
2023-01-30T06:38:48.832Z,6.05
2023-01-30T06:41:17.847Z,5.45
2023-01-30T06:43:46.808Z,5.43
2023-01-30T06:46:15.681Z,4.60
2023-01-30T06:48:44.637Z,6.07
2023-01-30T06:51:15.084Z,4.20
2023-01-30T06:53:44.087Z,3.92
2023-01-30T06:56:13.018Z,3.17
2023-01-30T06:58:41.964Z,5.30
2023-01-30T07:01:10.830Z,2.70
2023-01-30T07:03:39.667Z,3.10
2023-01-30T07:06:08.687Z,3.65
2023-01-30T07:08:38.655Z,3.22
2023-01-30T07:11:10.757Z,2.25
2023-01-30T07:13:39.476Z,4.35
2023-01-30T07:16:09.765Z,2.72
2023-01-30T07:18:38.821Z,2.10
2023-01-30T07:21:07.810Z,2.83
2023-01-30T07:23:38.128Z,1.60
2023-01-30T07:26:07.650Z,1.80
2023-01-30T07:28:36.724Z,2.42
2023-01-30T07:31:05.767Z,1.73
2023-01-30T07:33:34.542Z,3.15
2023-01-30T07:36:03.391Z,2.00
2023-01-30T07:38:32.051Z,6.07
2023-01-30T07:41:02.293Z,2.22
2023-01-30T07:43:30.879Z,1.42
2023-01-30T07:46:01.504Z,1.42
2023-01-30T07:48:30.535Z,2.35
2023-01-30T07:50:59.723Z,5.30
2023-01-30T07:53:28.760Z,2.05
2023-01-30T07:55:57.957Z,1.30
2023-01-30T07:58:29.938Z,1.75
2023-01-30T08:00:59.236Z,1.75
2023-01-30T08:03:27.870Z,2.25
2023-01-30T08:05:56.349Z,1.00
2023-01-30T08:08:24.959Z,2.00
2023-01-30T08:10:53.541Z,1.15
2023-01-30T08:13:22.156Z,1.35
2023-01-30T08:15:52.093Z,1.40
2023-01-30T08:18:20.624Z,3.13
2023-01-30T08:20:49.310Z,2.17
2023-01-30T08:23:17.961Z,1.73
2023-01-30T08:25:46.459Z,8.07
2023-01-30T08:28:15.018Z,2.33
2023-01-30T08:30:44.528Z,2.45
2023-01-30T08:33:14.455Z,4.18
2023-01-30T08:35:43.338Z,1.60
2023-01-30T08:38:12.413Z,4.25
2023-01-30T08:40:41.226Z,4.68
2023-01-30T08:43:10.373Z,6.00
2023-01-30T08:45:39.028Z,4.97
2023-01-30T08:48:08.161Z,3.38
2023-01-30T08:50:38.092Z,3.97
2023-01-30T08:53:08.985Z,5.78
2023-01-30T08:55:37.749Z,5.65
2023-01-30T08:58:06.264Z,5.93
2023-01-30T09:00:34.774Z,5.40
2023-01-30T09:03:03.467Z,7.22
2023-01-30T09:05:32.020Z,7.38
2023-01-30T09:08:02.248Z,8.07
2023-01-30T09:10:30.897Z,8.45
2023-01-30T09:12:59.468Z,9.23
2023-01-30T09:15:28.477Z,12.75
2023-01-30T09:17:56.991Z,11.27
2023-01-30T09:20:25.742Z,10.35
2023-01-30T09:22:54.407Z,9.73
2023-01-30T09:25:24.376Z,10.32
2023-01-30T09:27:53.052Z,11.65
2023-01-30T09:30:21.840Z,9.38
2023-01-30T09:32:50.609Z,15.38
2023-01-30T09:35:19.645Z,12.63
2023-01-30T09:37:49.143Z,10.57
2023-01-30T09:40:21.776Z,9.82
2023-01-30T09:43:19.205Z,13.30
2023-01-30T09:46:02.099Z,9.07
2023-01-30T09:48:34.704Z,16.45
2023-01-30T09:51:17.694Z,8.45
2023-01-30T09:54:00.240Z,10.77
2023-01-30T09:56:29.570Z,10.75
2023-01-30T09:59:02.421Z,13.80
2023-01-30T10:01:37.828Z,10.93
2023-01-30T10:04:16.322Z,9.57
2023-01-30T10:06:55.000Z,10.32
2023-01-30T10:09:34.330Z,13.57
2023-01-30T10:12:20.379Z,11.27
2023-01-30T10:15:03.345Z,8.50
2023-01-30T10:17:40.928Z,11.95
2023-01-30T10:20:26.638Z,11.65
2023-01-30T10:23:17.931Z,8.23
2023-01-30T10:25:50.101Z,8.20
2023-01-30T10:28:24.018Z,10.32
2023-01-30T10:30:57.406Z,14.75
2023-01-30T10:33:32.706Z,8.60
2023-01-30T10:36:05.987Z,10.95
2023-01-30T10:38:41.802Z,6.88
2023-01-30T10:41:16.804Z,12.85
2023-01-30T10:43:48.803Z,12.80
2023-01-30T10:46:34.637Z,7.72
2023-01-30T10:49:06.053Z,8.90
2023-01-30T10:51:45.773Z,12.20
2023-01-30T10:54:19.931Z,6.60
2023-01-30T10:56:54.413Z,8.32
2023-01-30T10:59:25.327Z,6.25
2023-01-30T11:02:03.789Z,13.20
2023-01-30T11:04:38.224Z,8.82
2023-01-30T11:07:07.764Z,10.18
2023-01-30T11:09:41.189Z,12.02
2023-01-30T11:12:10.904Z,10.90
2023-01-30T11:14:58.679Z,10.30
2023-01-30T11:17:35.180Z,8.82
2023-01-30T11:20:10.822Z,9.85
2023-01-30T11:22:47.252Z,7.07
2023-01-30T11:25:18.302Z,9.40
2023-01-30T11:27:55.869Z,11.73
2023-01-30T11:30:29.300Z,10.25
2023-01-30T11:33:12.189Z,7.90
2023-01-30T11:35:46.503Z,8.82
2023-01-30T11:38:23.491Z,8.90
2023-01-30T11:41:02.026Z,9.38
2023-01-30T11:43:30.875Z,6.32
2023-01-30T11:46:00.435Z,12.43
2023-01-30T11:49:14.497Z,10.18
2023-01-30T11:51:23.908Z,7.47
2023-01-30T11:53:58.405Z,7.35
2023-01-30T11:56:34.566Z,7.97
2023-01-30T11:59:05.907Z,8.93
2023-01-30T12:01:37.421Z,7.60
2023-01-30T12:04:12.273Z,10.02
2023-01-30T12:06:43.405Z,11.93
2023-01-30T12:09:34.389Z,11.65
2023-01-30T12:12:03.080Z,8.93
2023-01-30T12:14:41.102Z,13.65
2023-01-30T12:17:18.981Z,12.80
2023-01-30T12:20:01.740Z,5.78
2023-01-30T12:22:37.948Z,7.78
2023-01-30T12:25:14.985Z,10.18
2023-01-30T12:27:56.231Z,15.68
2023-01-30T12:30:30.544Z,13.35
2023-01-30T12:36:01.361Z,9.00
2023-01-30T12:38:50.117Z,9.40
2023-01-30T12:41:34.788Z,7.50
2023-01-30T12:44:22.594Z,11.90
2023-01-30T12:47:09.078Z,12.18
2023-01-30T12:49:52.531Z,12.95
2023-01-30T12:52:42.936Z,9.57
2023-01-30T12:55:23.927Z,12.38
2023-01-30T12:57:57.152Z,11.85
2023-01-30T13:00:44.992Z,9.48
2023-01-30T13:03:24.680Z,11.00
2023-01-30T13:06:07.489Z,11.38
2023-01-30T13:09:00.366Z,9.18
2023-01-30T13:11:42.971Z,11.48
2023-01-30T13:14:23.341Z,9.57
2023-01-30T13:17:06.964Z,12.20
2023-01-30T13:19:41.628Z,6.45
2023-01-30T13:22:18.804Z,8.23
2023-01-30T13:25:01.328Z,13.73
2023-01-30T13:27:33.664Z,16.13
2023-01-30T13:30:05.642Z,14.95
2023-01-30T13:32:41.713Z,8.82
2023-01-30T13:35:18.072Z,7.57
2023-01-30T13:37:49.274Z,13.43
2023-01-30T13:40:22.321Z,12.45
2023-01-30T13:42:55.771Z,7.22
2023-01-30T13:45:27.924Z,10.38
2023-01-30T13:48:11.939Z,10.10
2023-01-30T13:50:56.521Z,9.07
2023-01-30T13:53:31.263Z,10.70
2023-01-30T13:56:16.250Z,9.80
2023-01-30T13:59:00.215Z,11.23
2023-01-30T14:02:18.867Z,9.38
2023-01-30T14:04:52.233Z,12.55
2023-01-30T14:07:27.721Z,10.73
2023-01-30T14:10:16.913Z,17.50
2023-01-30T14:12:48.344Z,8.68
2023-01-30T14:15:26.661Z,12.50
2023-01-30T14:18:01.710Z,10.95
2023-01-30T14:20:31.553Z,13.80
2023-01-30T14:23:03.454Z,8.48
2023-01-30T14:25:50.849Z,6.65
2023-01-30T14:28:52.169Z,14.73
2023-01-30T14:31:51.305Z,9.35
2023-01-30T14:35:14.536Z,10.98
2023-01-30T14:38:05.903Z,10.27
2023-01-30T14:40:37.156Z,9.82
2023-01-30T14:43:34.924Z,14.60
2023-01-30T14:46:07.502Z,11.45
2023-01-30T14:48:44.701Z,12.23
2023-01-30T14:51:23.597Z,16.13
2023-01-30T14:53:56.032Z,9.43
2023-01-30T14:56:40.431Z,12.50
2023-01-30T14:59:18.093Z,8.40
2023-01-30T15:02:09.475Z,8.48
2023-01-30T15:04:45.183Z,9.80
2023-01-30T15:07:21.370Z,13.88
2023-01-30T15:09:55.520Z,11.07
2023-01-30T15:12:41.606Z,17.25
2023-01-30T15:15:22.071Z,10.18
2023-01-30T15:18:08.692Z,6.40
2023-01-30T15:20:50.058Z,8.10
2023-01-30T15:23:47.949Z,5.88
2023-01-30T15:26:31.042Z,10.85
2023-01-30T15:29:16.777Z,15.20
2023-01-30T15:31:55.661Z,10.40
2023-01-30T15:34:24.688Z,12.02
2023-01-30T15:36:53.180Z,6.82
2023-01-30T15:39:25.296Z,10.70
2023-01-30T15:41:57.130Z,10.70
2023-01-30T15:44:51.429Z,9.90
2023-01-30T15:47:47.157Z,12.93
2023-01-30T15:50:16.268Z,11.00
2023-01-30T15:52:48.322Z,9.70
2023-01-30T15:55:21.860Z,13.88
2023-01-30T15:57:54.032Z,12.13
2023-01-30T16:00:28.207Z,13.77
2023-01-30T16:02:58.423Z,15.10
2023-01-30T16:05:27.707Z,11.25
2023-01-30T16:07:57.981Z,10.68
2023-01-30T16:10:30.722Z,7.00
2023-01-30T16:13:03.335Z,10.52
2023-01-30T16:15:36.620Z,19.35
2023-01-30T16:18:14.431Z,8.48
2023-01-30T16:21:00.126Z,15.57
2023-01-30T16:23:33.022Z,12.55
2023-01-30T16:26:04.364Z,12.50
2023-01-30T16:28:33.723Z,12.55
2023-01-30T16:31:04.581Z,10.43
2023-01-30T16:33:36.455Z,15.05
2023-01-30T16:36:07.929Z,10.32
2023-01-30T16:38:40.244Z,14.20
2023-01-30T16:41:29.683Z,10.95
2023-01-30T16:44:17.571Z,12.35
2023-01-30T16:46:52.868Z,9.20
2023-01-30T16:49:24.770Z,12.05
2023-01-30T16:52:02.348Z,13.80
2023-01-30T16:54:32.763Z,15.73
2023-01-30T16:57:03.843Z,8.20
2023-01-30T16:59:34.350Z,12.93
2023-01-30T17:02:06.108Z,16.23
2023-01-30T17:04:35.766Z,9.45
2023-01-30T17:07:05.524Z,12.85
2023-01-30T17:09:43.593Z,9.52
2023-01-30T17:12:38.973Z,13.00
2023-01-30T17:15:27.176Z,14.20
2023-01-30T17:17:55.781Z,10.48
2023-01-30T17:20:24.729Z,15.20
2023-01-30T17:22:53.923Z,20.05
2023-01-30T17:25:31.599Z,9.57
2023-01-30T17:28:01.549Z,13.65
2023-01-30T17:30:30.676Z,17.35
2023-01-30T17:32:59.346Z,16.92
2023-01-30T17:35:28.082Z,11.23
2023-01-30T17:38:05.301Z,14.05
2023-01-30T17:40:37.104Z,10.98
2023-01-30T17:43:07.320Z,13.18
2023-01-30T17:45:37.266Z,15.40
2023-01-30T17:48:06.776Z,10.25
2023-01-30T17:50:36.692Z,12.05
2023-01-30T17:53:05.569Z,10.25
2023-01-30T17:55:35.405Z,9.60
2023-01-30T17:58:04.701Z,18.70
2023-01-30T18:00:34.862Z,16.38
2023-01-30T18:03:03.684Z,16.15
2023-01-30T18:05:32.390Z,17.95
2023-01-30T18:08:01.631Z,13.32
2023-01-30T18:10:30.585Z,14.45
2023-01-30T18:12:59.252Z,9.88
2023-01-30T18:15:28.267Z,18.10
2023-01-30T18:17:58.228Z,16.77
2023-01-30T18:20:26.871Z,10.90
2023-01-30T18:22:55.470Z,12.32
2023-01-30T18:25:24.100Z,15.95
2023-01-30T18:27:52.669Z,11.18
2023-01-30T18:30:24.405Z,12.05
2023-01-30T18:32:54.079Z,11.75
2023-01-30T18:35:24.524Z,14.15
2023-01-30T18:37:53.341Z,10.25
2023-01-30T18:40:22.617Z,12.98
2023-01-30T18:42:51.473Z,16.25
2023-01-30T18:45:20.175Z,14.48
2023-01-30T18:47:48.777Z,11.38
2023-01-30T18:50:17.957Z,14.07
2023-01-30T18:52:48.436Z,16.55
2023-01-30T18:55:17.341Z,13.10
2023-01-30T18:57:45.991Z,18.85
2023-01-30T19:00:17.253Z,13.68
2023-01-30T19:02:46.406Z,11.82
2023-01-30T19:05:15.637Z,12.70
2023-01-30T19:07:44.262Z,16.42
2023-01-30T19:10:17.545Z,6.32
2023-01-30T19:13:04.260Z,11.43
2023-01-30T19:15:35.956Z,16.02
2023-01-30T19:18:04.717Z,12.20
2023-01-30T19:20:34.786Z,15.43
2023-01-30T19:23:03.317Z,13.90
2023-01-30T19:25:33.483Z,16.50
2023-01-30T19:28:02.157Z,11.65
2023-01-30T19:30:31.722Z,13.32
2023-01-30T19:33:00.472Z,17.50
2023-01-30T19:35:29.361Z,9.10
2023-01-30T19:38:00.388Z,9.32
2023-01-30T19:40:29.149Z,10.27
2023-01-30T19:43:09.321Z,11.73
2023-01-30T19:45:40.177Z,20.60
2023-01-30T19:48:09.784Z,12.73
2023-01-30T19:50:38.823Z,15.82
2023-01-30T19:53:07.983Z,14.82
2023-01-30T19:55:36.615Z,12.10
2023-01-30T19:58:06.583Z,12.32
2023-01-30T20:00:35.499Z,15.13
2023-01-30T20:03:04.249Z,16.42
2023-01-30T20:05:33.116Z,16.58
2023-01-30T20:08:01.783Z,16.13
2023-01-30T20:10:30.339Z,15.25
2023-01-30T20:12:58.975Z,13.65
2023-01-30T20:15:28.939Z,12.07
2023-01-30T20:17:57.486Z,14.35
2023-01-30T20:20:26.031Z,15.40
2023-01-30T20:22:54.561Z,19.38
2023-01-30T20:25:23.159Z,13.88
2023-01-30T20:27:51.787Z,21.50
2023-01-30T20:30:20.755Z,17.00
2023-01-30T20:32:54.797Z,13.65
2023-01-30T20:35:23.369Z,15.73
2023-01-30T20:37:52.708Z,14.07
2023-01-30T20:40:21.448Z,13.65
2023-01-30T20:42:50.148Z,17.70
2023-01-30T20:45:18.664Z,15.55
2023-01-30T20:47:47.168Z,14.50
2023-01-30T20:50:18.278Z,16.40
2023-01-30T20:52:51.394Z,17.58
2023-01-30T20:55:20.533Z,13.32
2023-01-30T20:57:49.238Z,18.48
2023-01-30T21:00:18.698Z,12.88
2023-01-30T21:02:52.408Z,18.13
2023-01-30T21:05:22.318Z,14.02
2023-01-30T21:07:50.901Z,16.33
2023-01-30T21:10:19.614Z,14.40
2023-01-30T21:12:48.713Z,17.60
2023-01-30T21:15:17.712Z,21.38
2023-01-30T21:17:47.395Z,11.43
2023-01-30T21:20:16.345Z,14.45
2023-01-30T21:22:46.261Z,16.15
2023-01-30T21:25:14.799Z,12.98
2023-01-30T21:27:43.787Z,20.05
2023-01-30T21:30:13.954Z,17.35
2023-01-30T21:32:42.504Z,18.70
2023-01-30T21:35:11.212Z,12.02
2023-01-30T21:37:57.915Z,15.52
2023-01-30T21:40:45.187Z,14.32
2023-01-30T21:43:16.729Z,14.85
2023-01-30T21:45:45.511Z,18.85
2023-01-30T21:48:14.072Z,13.05
2023-01-30T21:50:42.613Z,25.02
2023-01-30T21:53:11.159Z,16.85
2023-01-30T21:55:41.124Z,16.20
2023-01-30T21:58:09.680Z,20.63
2023-01-30T22:00:38.151Z,20.33
2023-01-30T22:03:06.707Z,16.38
2023-01-30T22:05:36.762Z,16.08
2023-01-30T22:08:06.046Z,17.17
2023-01-30T22:10:34.619Z,12.70
2023-01-30T22:13:04.590Z,10.85
2023-01-30T22:15:33.857Z,12.88
2023-01-30T22:18:03.868Z,13.82
2023-01-30T22:20:32.436Z,19.23
2023-01-30T22:23:00.944Z,23.83
2023-01-30T22:25:29.627Z,16.27
2023-01-30T22:27:58.166Z,15.65
2023-01-30T22:30:28.088Z,13.55
2023-01-30T22:32:56.644Z,16.50
2023-01-30T22:35:25.197Z,14.52
2023-01-30T22:37:54.240Z,19.27
2023-01-30T22:40:22.884Z,16.30
2023-01-30T22:42:51.515Z,19.05
2023-01-30T22:45:20.241Z,15.07
2023-01-30T22:47:50.531Z,11.85
2023-01-30T22:50:19.207Z,23.58
2023-01-30T22:52:47.715Z,9.57
2023-01-30T22:55:16.379Z,20.85
2023-01-30T22:57:45.062Z,17.65
2023-01-30T23:00:14.219Z,12.15
2023-01-30T23:02:42.816Z,19.75
2023-01-30T23:05:12.946Z,18.48
2023-01-30T23:07:41.547Z,10.68
2023-01-30T23:10:11.359Z,14.63
2023-01-30T23:12:57.232Z,14.68
2023-01-30T23:15:25.888Z,14.38
2023-01-30T23:18:17.454Z,16.00
2023-01-30T23:20:47.350Z,12.38
2023-01-30T23:23:15.837Z,14.13
2023-01-30T23:25:45.001Z,17.02
2023-01-30T23:28:13.637Z,20.05
2023-01-30T23:30:42.346Z,13.90
2023-01-30T23:33:10.904Z,18.92
2023-01-30T23:35:40.118Z,12.70
2023-01-30T23:38:19.146Z,19.98
2023-01-30T23:40:48.923Z,14.10
2023-01-30T23:43:17.988Z,11.02
2023-01-30T23:45:46.598Z,15.50
2023-01-30T23:48:15.141Z,17.95
2023-01-30T23:50:44.118Z,17.02
2023-01-30T23:53:14.065Z,18.20
2023-01-30T23:55:51.526Z,14.75
2023-01-30T23:58:20.247Z,16.55
